Billings Logan International Airport Billings US
ICAO: KBIL
IATA: BIL
Category: Large
Scheduled Services: Yes

Elevation: 3652 ft
TransAlt. 18000 ft.

Airport Communications:
APP/DEP:119.2
ATIS:126.3
CLNC DEL:121.9
GND:121.9
GREAT FALLS RDO:122.55
TWR:124.2
UNICOM:122.95

KBIL Zoom In..

If you have problems with the map follow the link
https://www.worldairports.se/pages/airport.php?
ICAO=KBIL

Runways:

(A) RW 07 length 5503 ft width 75 ft
---- / hdg 70

(B) RW 10L length 10521 ft width 150 ft
ILS 110.30 / hdg 98

(C) RW 10R length 3800 ft width 75 ft
---- / hdg 98

(D) RW 25 length 5503 ft width 75 ft
---- / hdg 250

(E) RW 28L length 3800 ft width 75 ft
---- / hdg 278

(F) RW 28R length 10521 ft width 150 ft
ILS 111.50 / hdg 278

Location; KBIL
Day. 13 / Time. 21.02 Zulu
* Altimeter: 29.89
* Temperature: 1/° c. 33.8°f.
* Wind from: 080° Speed 05 kn.
Dewpoint: V3° c.
Visibility: 1/2 Statute Miles.
Clouds: Broken 200 ft.
Clouds: Broken 1000 ft.
Conditions: Fog.

KBIL 132102Z 08005KT 1/2SM R10L/1000FT FG BKN002 BKN100 01/00 A2989 RMK AO2 VIS 1/4V3/4 T00060000 $


Wind From 080°
Speed 05 kn.

 
 
jpsmedia worldairports.se 2019   terms of use